createdAt,value
2019-06-07T00:00:47.628Z,18.11
2019-06-07T00:01:52.440Z,18.14
2019-06-07T00:02:56.105Z,18.14
2019-06-07T00:04:00.338Z,18.14
2019-06-07T00:05:05.360Z,18.10
2019-06-07T00:06:13.187Z,18.06
2019-06-07T00:07:17.757Z,18.03
2019-06-07T00:08:27.155Z,18.02
2019-06-07T00:09:26.565Z,18.03
2019-06-07T00:10:36.490Z,18.01
2019-06-07T00:11:36.512Z,18.04
2019-06-07T00:12:40.773Z,18.01
2019-06-07T00:13:44.403Z,17.99
2019-06-07T00:14:48.643Z,17.97
2019-06-07T00:15:52.299Z,17.88
2019-06-07T00:16:56.533Z,17.88
2019-06-07T00:18:00.214Z,17.82
2019-06-07T00:19:04.449Z,17.72
2019-06-07T00:20:13.458Z,17.69
2019-06-07T00:21:17.026Z,17.69
2019-06-07T00:22:32.107Z,17.71
2019-06-07T00:23:26.336Z,17.71
2019-06-07T00:24:30.001Z,17.71
2019-06-07T00:25:34.224Z,17.71
2019-06-07T00:26:57.031Z,17.72
2019-06-07T00:27:43.797Z,17.70
2019-06-07T00:28:47.464Z,17.67
2019-06-07T00:29:51.778Z,17.68
2019-06-07T00:30:55.426Z,17.69
2019-06-07T00:31:59.632Z,17.68
2019-06-07T00:33:03.262Z,17.67
2019-06-07T00:34:07.525Z,17.66
2019-06-07T00:35:14.265Z,17.65
2019-06-07T00:36:19.973Z,17.64
2019-06-07T00:37:25.422Z,17.57
2019-06-07T00:38:29.497Z,17.58
2019-06-07T00:39:33.126Z,17.56
2019-06-07T00:40:37.367Z,17.54
2019-06-07T00:41:41.021Z,17.55
2019-06-07T00:42:45.285Z,17.58
2019-06-07T00:43:48.910Z,17.64
2019-06-07T00:44:52.885Z,17.64
2019-06-07T00:45:56.540Z,17.63
2019-06-07T00:47:00.764Z,17.61
2019-06-07T00:48:04.457Z,17.61
2019-06-07T00:49:08.761Z,17.62
2019-06-07T00:50:16.491Z,17.64
2019-06-07T00:51:23.531Z,17.64
2019-06-07T00:53:32.843Z,17.68
2019-06-07T00:54:36.574Z,17.69
2019-06-07T00:55:41.233Z,17.69
2019-06-07T00:56:45.200Z,17.71
2019-06-07T00:57:49.410Z,17.75
2019-06-07T00:59:10.264Z,17.76
2019-06-07T00:59:59.065Z,17.78
2019-06-07T01:01:02.782Z,17.74
2019-06-07T01:02:07.018Z,17.69
2019-06-07T01:03:10.679Z,17.59
2019-06-07T01:04:17.766Z,17.61
2019-06-07T01:05:26.109Z,17.66
2019-06-07T01:06:26.762Z,17.63
2019-06-07T01:07:30.503Z,17.57
2019-06-07T01:08:34.794Z,17.56
2019-06-07T01:09:38.823Z,17.54
2019-06-07T01:10:58.307Z,17.53
2019-06-07T01:11:48.460Z,17.48
2019-06-07T01:12:52.751Z,17.49
2019-06-07T01:13:56.448Z,17.51
2019-06-07T01:15:00.664Z,17.53
2019-06-07T01:16:04.404Z,17.55
2019-06-07T01:17:36.299Z,17.59
2019-06-07T01:18:41.001Z,17.55
2019-06-07T01:19:34.984Z,17.57
2019-06-07T01:20:38.671Z,17.54
2019-06-07T01:21:42.889Z,17.54
2019-06-07T01:22:46.521Z,17.55
2019-06-07T01:24:56.484Z,17.49
2019-06-07T01:26:00.775Z,17.36
2019-06-07T01:27:04.428Z,17.34
2019-06-07T01:28:08.647Z,17.40
2019-06-07T01:29:12.418Z,17.44
2019-06-07T01:30:18.783Z,17.39
2019-06-07T01:31:25.404Z,17.41
2019-06-07T01:32:31.710Z,17.45
2019-06-07T01:33:50.233Z,17.49
2019-06-07T01:34:41.686Z,17.52
2019-06-07T01:35:45.652Z,17.45
2019-06-07T01:36:49.922Z,17.47
2019-06-07T01:37:53.562Z,17.48
2019-06-07T01:38:57.799Z,17.48
2019-06-07T01:40:01.786Z,17.48
2019-06-07T01:41:05.979Z,17.52
2019-06-07T01:42:09.639Z,17.55
2019-06-07T01:43:13.875Z,17.54
2019-06-07T01:44:22.182Z,17.55
2019-06-07T01:45:24.338Z,17.56
2019-06-07T01:46:29.063Z,17.57
2019-06-07T01:47:33.247Z,17.52
2019-06-07T01:48:48.920Z,17.48
2019-06-07T01:49:42.832Z,17.45
2019-06-07T01:50:46.478Z,17.45
2019-06-07T01:51:50.701Z,17.51
2019-06-07T01:52:54.357Z,17.53
2019-06-07T01:54:48.625Z,17.51
2019-06-07T01:55:05.837Z,17.41
2019-06-07T01:56:10.074Z,17.39
2019-06-07T01:57:31.055Z,17.41
2019-06-07T01:58:22.072Z,17.40
2019-06-07T01:59:27.711Z,17.31
2019-06-07T02:00:32.531Z,17.27
2019-06-07T02:01:36.570Z,17.23
2019-06-07T02:02:40.807Z,17.14
2019-06-07T02:03:44.366Z,17.07
2019-06-07T02:04:48.519Z,17.10
2019-06-07T02:05:52.282Z,17.15
2019-06-07T02:06:56.489Z,17.18
2019-06-07T02:08:00.128Z,17.22
2019-06-07T02:09:06.167Z,17.27
2019-06-07T02:10:10.558Z,17.29
2019-06-07T02:11:14.767Z,17.31
2019-06-07T02:12:28.101Z,17.30
2019-06-07T02:13:27.441Z,17.35
2019-06-07T02:14:32.502Z,17.36
2019-06-07T02:15:36.688Z,17.35
2019-06-07T02:16:40.622Z,17.37
2019-06-07T02:17:44.865Z,17.40
2019-06-07T02:19:01.305Z,17.44
2019-06-07T02:19:54.444Z,17.44
2019-06-07T02:20:58.070Z,17.43
2019-06-07T02:22:02.382Z,17.27
2019-06-07T02:23:06.167Z,17.26
2019-06-07T02:24:10.377Z,17.31
2019-06-07T02:25:37.287Z,17.29
2019-06-07T02:26:20.659Z,17.25
2019-06-07T02:27:25.673Z,17.23
2019-06-07T02:28:44.212Z,17.22
2019-06-07T02:29:35.627Z,17.17
2019-06-07T02:30:54.982Z,17.16
2019-06-07T02:31:45.169Z,17.16
2019-06-07T02:32:50.451Z,17.09
2019-06-07T02:33:54.013Z,17.11
2019-06-07T02:34:58.560Z,17.11
2019-06-07T02:36:02.252Z,17.13
2019-06-07T02:37:06.456Z,17.20
2019-06-07T02:38:10.104Z,17.23
2019-06-07T02:39:14.333Z,17.24
2019-06-07T02:40:19.723Z,17.26
2019-06-07T02:41:27.349Z,17.29
2019-06-07T02:42:38.971Z,17.28
2019-06-07T02:43:37.044Z,17.31
2019-06-07T02:44:40.900Z,17.24
2019-06-07T02:45:45.231Z,17.18
2019-06-07T02:46:50.038Z,17.14
2019-06-07T02:47:54.515Z,17.09
2019-06-07T02:48:58.162Z,17.11
2019-06-07T02:50:02.375Z,17.16
2019-06-07T02:51:06.104Z,17.21
2019-06-07T02:52:10.375Z,17.26
2019-06-07T02:53:14.100Z,17.19
2019-06-07T02:54:18.317Z,17.21
2019-06-07T02:55:24.879Z,17.14
2019-06-07T02:56:39.130Z,17.11
2019-06-07T02:57:36.943Z,17.08
2019-06-07T02:58:41.927Z,17.03
2019-06-07T03:00:05.775Z,17.07
2019-06-07T03:01:06.749Z,17.15
2019-06-07T03:01:57.043Z,17.20
2019-06-07T03:03:01.308Z,17.22
2019-06-07T03:04:04.951Z,17.23
2019-06-07T03:05:13.100Z,17.23
2019-06-07T03:06:16.779Z,17.21
2019-06-07T03:07:21.987Z,17.20
2019-06-07T03:08:28.277Z,17.10
2019-06-07T03:09:35.046Z,17.07
2019-06-07T03:10:41.723Z,17.02
2019-06-07T03:11:46.177Z,16.97
2019-06-07T03:12:51.000Z,16.99
2019-06-07T03:13:56.672Z,16.89
2019-06-07T03:15:00.930Z,16.92
2019-06-07T03:16:07.682Z,16.78
2019-06-07T03:17:18.803Z,16.78
2019-06-07T03:18:41.708Z,16.94
2019-06-07T03:19:51.805Z,16.98
2019-06-07T03:21:05.329Z,17.00
2019-06-07T03:22:05.299Z,16.97
2019-06-07T03:23:09.581Z,16.92
2019-06-07T03:24:13.193Z,16.95
2019-06-07T03:25:17.434Z,16.95
2019-06-07T03:26:23.776Z,16.95
2019-06-07T03:27:36.145Z,16.98
2019-06-07T03:28:37.308Z,17.01
2019-06-07T03:29:41.364Z,17.02
2019-06-07T03:31:00.651Z,17.05
2019-06-07T03:31:51.062Z,17.05
2019-06-07T03:32:54.701Z,17.08
2019-06-07T03:33:58.969Z,17.07
2019-06-07T03:35:02.586Z,17.09
2019-06-07T03:36:22.935Z,17.01
2019-06-07T03:37:12.292Z,17.03
2019-06-07T03:38:16.507Z,17.07
2019-06-07T03:39:20.185Z,17.14
2019-06-07T03:40:26.449Z,17.20
2019-06-07T03:41:36.845Z,17.16
2019-06-07T03:42:40.229Z,17.16
2019-06-07T03:43:43.908Z,17.19
2019-06-07T03:44:48.191Z,17.17
2019-06-07T03:45:51.867Z,17.06
2019-06-07T03:46:56.077Z,17.01
2019-06-07T03:47:59.726Z,17.07
2019-06-07T03:49:03.944Z,17.08
2019-06-07T03:50:07.577Z,17.08
2019-06-07T03:51:24.892Z,17.04
2019-06-07T03:52:17.213Z,16.92
2019-06-07T03:53:21.438Z,16.93
2019-06-07T03:54:25.082Z,16.91
2019-06-07T03:55:30.513Z,16.74
2019-06-07T03:56:36.059Z,16.80
2019-06-07T03:58:29.425Z,16.90
2019-06-07T03:58:50.017Z,16.95
2019-06-07T03:59:52.388Z,17.01
2019-06-07T04:00:58.727Z,16.97
2019-06-07T04:02:02.264Z,16.89
2019-06-07T04:03:05.914Z,16.84
2019-06-07T04:04:10.126Z,16.78
2019-06-07T04:05:13.811Z,16.84
2019-06-07T04:06:18.024Z,16.96
2019-06-07T04:07:21.589Z,17.10
2019-06-07T04:08:25.824Z,17.21
2019-06-07T04:09:33.673Z,17.25
2019-06-07T04:10:54.963Z,17.27
2019-06-07T04:11:41.010Z,17.22
2019-06-07T04:12:45.277Z,17.21
2019-06-07T04:13:49.178Z,17.22
2019-06-07T04:14:53.429Z,17.31
2019-06-07T04:15:57.031Z,17.33
2019-06-07T04:17:01.245Z,17.36
2019-06-07T04:18:05.124Z,17.31
2019-06-07T04:19:17.422Z,17.34
2019-06-07T04:20:21.052Z,17.32
2019-06-07T04:21:42.546Z,17.27
2019-06-07T04:22:44.529Z,17.35
2019-06-07T04:23:50.539Z,17.37
2019-06-07T04:24:54.195Z,17.38
2019-06-07T04:25:58.340Z,17.38
2019-06-07T04:27:02.020Z,17.40
2019-06-07T04:28:06.358Z,17.29
2019-06-07T04:29:32.990Z,17.17
2019-06-07T04:30:19.324Z,17.11
2019-06-07T04:31:22.982Z,16.93
2019-06-07T04:32:29.720Z,16.92
2019-06-07T04:33:34.985Z,17.05
2019-06-07T04:34:42.868Z,17.18
2019-06-07T04:35:45.253Z,17.28
2019-06-07T04:36:58.375Z,17.28
2019-06-07T04:37:56.181Z,17.16
2019-06-07T04:39:01.721Z,17.11
2019-06-07T04:40:08.466Z,17.04
2019-06-07T04:41:14.312Z,16.95
2019-06-07T04:42:20.337Z,17.04
2019-06-07T04:43:26.327Z,17.07
2019-06-07T04:44:31.293Z,17.12
2019-06-07T04:45:41.860Z,17.07
2019-06-07T04:46:43.028Z,17.01
2019-06-07T04:47:49.558Z,17.00
2019-06-07T04:48:55.597Z,16.97
2019-06-07T04:50:03.018Z,16.96
2019-06-07T04:51:06.661Z,16.89
2019-06-07T04:52:12.194Z,16.96
2019-06-07T04:53:16.174Z,17.05
2019-06-07T04:54:20.564Z,17.16
2019-06-07T04:55:24.259Z,17.26
2019-06-07T04:56:30.052Z,17.25
2019-06-07T04:57:35.439Z,17.20
2019-06-07T04:58:41.310Z,17.17
2019-06-07T05:00:56.383Z,17.19
2019-06-07T05:01:56.594Z,17.29
2019-06-07T05:03:01.795Z,17.25
2019-06-07T05:04:05.436Z,17.26
2019-06-07T05:05:09.736Z,17.30
2019-06-07T05:06:13.441Z,17.27
2019-06-07T05:07:17.785Z,17.24
2019-06-07T05:08:27.976Z,17.21
2019-06-07T05:09:27.317Z,17.24
2019-06-07T05:10:35.147Z,17.36
2019-06-07T05:11:39.414Z,17.55
2019-06-07T05:12:44.165Z,17.62
2019-06-07T05:13:48.648Z,17.72
2019-06-07T05:14:52.702Z,17.75
2019-06-07T05:15:56.946Z,17.67
2019-06-07T05:17:00.600Z,17.61
2019-06-07T05:18:04.837Z,17.59
2019-06-07T05:19:08.588Z,17.63
2019-06-07T05:20:13.205Z,17.65
2019-06-07T05:21:16.843Z,17.65
2019-06-07T05:22:21.060Z,17.74
2019-06-07T05:24:31.447Z,17.70
2019-06-07T05:25:38.427Z,17.68
2019-06-07T05:26:42.881Z,17.71
2019-06-07T05:27:47.187Z,17.73
2019-06-07T05:28:53.823Z,17.83
2019-06-07T05:30:13.268Z,17.83
2019-06-07T05:31:07.346Z,17.90
2019-06-07T05:32:09.532Z,17.89
2019-06-07T05:33:14.969Z,17.83
2019-06-07T05:34:18.641Z,17.75
2019-06-07T05:35:23.211Z,17.78
2019-06-07T05:36:26.847Z,17.76
2019-06-07T05:37:32.540Z,17.80
2019-06-07T05:38:40.548Z,17.87
2019-06-07T05:39:46.290Z,17.89
2019-06-07T05:40:48.971Z,17.83
2019-06-07T05:41:53.315Z,17.65
2019-06-07T05:42:58.055Z,17.60
2019-06-07T05:44:12.498Z,17.69
2019-06-07T05:45:08.415Z,17.73
2019-06-07T05:46:12.634Z,17.83
2019-06-07T05:47:16.274Z,17.88
2019-06-07T05:48:20.537Z,17.81
2019-06-07T05:49:24.154Z,17.77
2019-06-07T05:50:41.382Z,17.78
2019-06-07T05:51:34.743Z,17.79
2019-06-07T05:52:42.191Z,17.84
2019-06-07T05:53:46.025Z,17.85
2019-06-07T05:54:50.294Z,17.87
2019-06-07T05:55:53.981Z,17.76
2019-06-07T05:56:58.207Z,17.72
2019-06-07T05:58:01.904Z,17.73
2019-06-07T05:59:06.116Z,17.71
2019-06-07T06:00:09.751Z,17.79
2019-06-07T06:01:42.249Z,17.82
2019-06-07T06:02:24.613Z,17.80
2019-06-07T06:03:27.115Z,17.84
2019-06-07T06:04:30.828Z,17.86
2019-06-07T06:05:41.635Z,17.82
2019-06-07T06:06:44.746Z,17.82
2019-06-07T06:07:50.532Z,17.80
2019-06-07T06:08:52.161Z,17.72
2019-06-07T06:09:56.402Z,17.83
2019-06-07T06:11:00.133Z,17.95
2019-06-07T06:12:05.817Z,17.92
2019-06-07T06:13:09.451Z,17.80
2019-06-07T06:14:14.083Z,17.69
2019-06-07T06:15:18.159Z,17.78
2019-06-07T06:16:22.406Z,17.90
2019-06-07T06:17:26.493Z,18.01
2019-06-07T06:18:30.710Z,18.07
2019-06-07T06:19:34.338Z,18.03
2019-06-07T06:21:01.008Z,18.09
2019-06-07T06:21:46.318Z,18.11
2019-06-07T06:22:51.224Z,18.05
2019-06-07T06:23:55.008Z,18.04
2019-06-07T06:25:30.765Z,18.06
2019-06-07T06:26:04.624Z,18.16
2019-06-07T06:27:28.503Z,18.30
2019-06-07T06:28:16.042Z,18.29
2019-06-07T06:29:20.229Z,18.20
2019-06-07T06:30:24.339Z,18.22
2019-06-07T06:31:28.843Z,18.18
2019-06-07T06:32:44.026Z,18.29
2019-06-07T06:33:39.629Z,18.44
2019-06-07T06:34:46.213Z,18.53
2019-06-07T06:35:50.988Z,18.58
2019-06-07T06:36:56.058Z,18.57
2019-06-07T06:38:03.299Z,18.45
2019-06-07T06:39:09.825Z,18.53
2019-06-07T06:40:14.557Z,18.60
2019-06-07T06:41:18.219Z,18.72
2019-06-07T06:42:22.522Z,18.83
2019-06-07T06:43:26.172Z,18.90
2019-06-07T06:44:30.425Z,18.96
2019-06-07T06:45:37.716Z,18.79
2019-06-07T06:46:46.345Z,18.61
2019-06-07T06:47:50.393Z,18.61
2019-06-07T06:48:55.342Z,18.76
2019-06-07T06:49:58.799Z,18.92
2019-06-07T06:51:03.023Z,18.99
2019-06-07T06:52:06.682Z,19.04
2019-06-07T06:53:10.924Z,19.01
2019-06-07T06:54:14.659Z,18.93
2019-06-07T06:55:19.228Z,18.93
2019-06-07T06:56:25.589Z,18.93
2019-06-07T06:57:29.835Z,18.97
2019-06-07T06:59:18.518Z,19.11
2019-06-07T06:59:41.396Z,19.23
2019-06-07T07:01:04.260Z,19.29
2019-06-07T07:01:58.880Z,19.18
2019-06-07T07:03:47.651Z,19.16
2019-06-07T07:04:13.619Z,19.26
2019-06-07T07:05:18.007Z,19.44
2019-06-07T07:06:26.196Z,19.70
2019-06-07T07:07:29.395Z,19.90
2019-06-07T07:08:33.597Z,20.06
2019-06-07T07:09:37.699Z,20.08
2019-06-07T07:10:48.641Z,20.00
2019-06-07T07:12:09.760Z,19.97
2019-06-07T07:12:57.935Z,20.16
2019-06-07T07:14:01.651Z,20.31
2019-06-07T07:15:14.847Z,20.38
2019-06-07T07:16:18.498Z,20.57
2019-06-07T07:17:47.036Z,20.73
2019-06-07T07:18:28.095Z,20.73
2019-06-07T07:19:32.335Z,20.67
2019-06-07T07:20:36.331Z,20.73
2019-06-07T07:21:41.946Z,20.78
2019-06-07T07:22:48.040Z,20.91
2019-06-07T07:24:14.572Z,21.13
2019-06-07T07:24:57.240Z,21.35
2019-06-07T07:26:05.177Z,21.46
2019-06-07T07:27:08.907Z,21.43
2019-06-07T07:28:13.224Z,21.39
2019-06-07T07:29:16.886Z,21.41
2019-06-07T07:30:41.911Z,21.62
2019-06-07T07:31:50.299Z,21.78
2019-06-07T07:32:54.120Z,21.93
2019-06-07T07:34:30.910Z,22.15
2019-06-07T07:35:03.215Z,22.28
2019-06-07T07:36:23.326Z,22.22
2019-06-07T07:37:12.865Z,22.17
2019-06-07T07:38:16.528Z,22.37
2019-06-07T07:39:21.113Z,22.56
2019-06-07T07:41:30.550Z,22.78
2019-06-07T07:42:34.131Z,22.91
2019-06-07T07:43:38.300Z,22.87
2019-06-07T07:44:41.958Z,22.82
2019-06-07T07:45:51.077Z,22.81
2019-06-07T07:46:54.074Z,22.87
2019-06-07T07:48:13.766Z,23.11
2019-06-07T07:49:03.007Z,23.14
2019-06-07T07:50:08.141Z,23.35
2019-06-07T07:51:11.865Z,23.50
2019-06-07T07:52:16.205Z,23.29
2019-06-07T07:53:19.867Z,23.27
2019-06-07T07:54:24.108Z,23.31
2019-06-07T07:55:27.764Z,23.50
2019-06-07T07:56:32.049Z,23.66
2019-06-07T07:57:35.700Z,23.72
2019-06-07T07:58:39.923Z,23.85
2019-06-07T08:00:00.474Z,23.83
2019-06-07T08:00:53.886Z,23.58
2019-06-07T08:01:56.081Z,23.67
2019-06-07T08:03:04.394Z,23.78
2019-06-07T08:04:05.871Z,23.84
2019-06-07T08:05:22.554Z,23.92
2019-06-07T08:06:15.787Z,24.01
2019-06-07T08:07:20.130Z,23.99
2019-06-07T08:08:24.178Z,23.87
2019-06-07T08:09:31.186Z,23.73
2019-06-07T08:10:34.831Z,23.54
2019-06-07T08:11:39.083Z,23.74
2019-06-07T08:13:00.172Z,24.05
2019-06-07T08:13:50.596Z,24.38
2019-06-07T08:14:58.630Z,24.68
2019-06-07T08:16:10.548Z,24.79
2019-06-07T08:17:05.821Z,24.70
2019-06-07T08:18:10.046Z,24.52
2019-06-07T08:19:13.692Z,24.66
2019-06-07T08:20:18.236Z,24.75
2019-06-07T08:21:26.395Z,24.94
2019-06-07T08:22:27.736Z,25.23
2019-06-07T08:23:31.391Z,25.50
2019-06-07T08:24:35.608Z,25.69
2019-06-07T08:25:39.299Z,25.74
2019-06-07T08:26:43.569Z,25.69
2019-06-07T08:27:47.249Z,25.97
2019-06-07T08:28:55.899Z,26.25
2019-06-07T08:30:15.919Z,26.50
2019-06-07T08:31:07.001Z,26.50
2019-06-07T08:32:08.571Z,26.68
2019-06-07T08:33:26.180Z,26.65
2019-06-07T08:34:18.594Z,26.67
2019-06-07T08:36:03.584Z,26.85
2019-06-07T08:36:41.504Z,26.71
2019-06-07T08:38:14.206Z,26.58
2019-06-07T08:38:47.888Z,26.81
2019-06-07T08:39:46.645Z,26.99
2019-06-07T08:40:56.820Z,27.15
2019-06-07T08:42:11.893Z,27.18
2019-06-07T08:43:15.545Z,27.18
2019-06-07T08:44:22.892Z,27.28
2019-06-07T08:45:15.278Z,27.37
2019-06-07T08:46:23.437Z,27.52
2019-06-07T08:47:27.784Z,27.69
2019-06-07T08:48:32.075Z,27.86
2019-06-07T08:49:35.865Z,27.61
2019-06-07T08:50:41.828Z,27.29
2019-06-07T08:51:45.477Z,27.36
2019-06-07T08:52:55.994Z,27.55
2019-06-07T08:54:18.880Z,27.50
2019-06-07T08:55:04.778Z,27.43
2019-06-07T08:56:10.480Z,27.49
2019-06-07T08:57:21.166Z,27.38
2019-06-07T08:58:17.757Z,27.18
2019-06-07T08:59:22.002Z,27.07
2019-06-07T09:01:32.053Z,27.05
2019-06-07T09:02:35.718Z,27.23
2019-06-07T09:03:39.944Z,27.37
2019-06-07T09:04:43.598Z,27.55
2019-06-07T09:05:47.976Z,27.65
2019-06-07T09:07:07.348Z,27.71
2019-06-07T09:08:22.295Z,27.84
2019-06-07T09:09:05.381Z,28.00
2019-06-07T09:10:14.580Z,28.10
2019-06-07T09:11:16.027Z,27.94
2019-06-07T09:12:20.286Z,27.79
2019-06-07T09:13:23.956Z,27.93
2019-06-07T09:14:28.206Z,27.98
2019-06-07T09:15:32.183Z,28.06
2019-06-07T09:16:36.733Z,28.17
2019-06-07T09:18:29.322Z,28.29
2019-06-07T09:18:46.340Z,28.42
2019-06-07T09:19:50.447Z,28.39
2019-06-07T09:20:55.677Z,28.42
2019-06-07T09:22:04.593Z,28.35
2019-06-07T09:23:15.726Z,28.40
2019-06-07T09:24:12.172Z,28.55
2019-06-07T09:25:21.235Z,28.66
2019-06-07T09:26:22.646Z,28.79
2019-06-07T09:27:27.986Z,28.87
2019-06-07T09:28:32.190Z,28.86
2019-06-07T09:29:37.632Z,28.80
2019-06-07T09:30:43.228Z,28.92
2019-06-07T09:31:53.427Z,28.94
2019-06-07T09:32:52.835Z,28.95
2019-06-07T09:34:04.100Z,28.73
2019-06-07T09:35:08.518Z,28.73
2019-06-07T09:36:12.640Z,28.91
2019-06-07T09:38:03.048Z,29.07
2019-06-07T09:38:25.662Z,29.16
2019-06-07T09:39:25.934Z,29.29
2019-06-07T09:40:32.994Z,29.32
2019-06-07T09:41:47.633Z,29.37
2019-06-07T09:42:42.532Z,29.45
2019-06-07T09:44:01.498Z,29.33
2019-06-07T09:44:52.158Z,29.18
2019-06-07T09:45:57.991Z,29.07
2019-06-07T09:47:22.444Z,28.84
2019-06-07T09:48:15.945Z,28.51
2019-06-07T09:49:30.623Z,28.47
2019-06-07T09:50:21.984Z,28.71
2019-06-07T09:51:26.206Z,28.83
2019-06-07T09:52:29.863Z,28.94
2019-06-07T09:53:37.002Z,28.98
2019-06-07T09:55:06.018Z,29.20
2019-06-07T09:55:46.709Z,29.38
2019-06-07T09:56:50.461Z,29.49
2019-06-07T09:57:54.691Z,29.45
2019-06-07T09:59:00.377Z,29.34
2019-06-07T10:00:36.755Z,29.47
2019-06-07T10:01:14.800Z,29.69
2019-06-07T10:02:19.337Z,29.84
2019-06-07T10:03:25.004Z,29.92
2019-06-07T10:04:31.480Z,30.00
2019-06-07T10:05:34.290Z,30.08
2019-06-07T10:06:38.554Z,30.07
2019-06-07T10:07:59.552Z,30.13
2019-06-07T10:11:00.356Z,30.49
2019-06-07T10:12:04.655Z,30.42
2019-06-07T10:13:10.267Z,30.43
2019-06-07T10:14:13.973Z,30.54
2019-06-07T10:15:18.620Z,30.57
2019-06-07T10:16:22.219Z,30.65
2019-06-07T10:17:26.431Z,30.69
2019-06-07T10:18:30.020Z,30.81
2019-06-07T10:19:34.214Z,30.93
2019-06-07T10:20:37.842Z,31.03
2019-06-07T10:21:45.146Z,31.14
2019-06-07T10:22:48.793Z,31.18
2019-06-07T10:23:53.391Z,31.12
2019-06-07T10:24:59.738Z,31.03
2019-06-07T10:26:04.130Z,31.12
2019-06-07T10:27:07.975Z,31.17
2019-06-07T10:28:12.586Z,31.24
2019-06-07T10:29:16.219Z,31.35
2019-06-07T10:30:20.759Z,31.42
2019-06-07T10:31:24.407Z,31.32
2019-06-07T10:32:28.665Z,31.38
2019-06-07T10:33:32.314Z,31.53
2019-06-07T10:34:37.773Z,31.62
2019-06-07T10:35:41.319Z,31.73
2019-06-07T10:36:48.331Z,31.83
2019-06-07T10:37:51.983Z,31.91
2019-06-07T10:38:56.701Z,31.90
2019-06-07T10:40:02.918Z,31.97
2019-06-07T10:41:07.209Z,32.05
2019-06-07T10:42:11.571Z,32.10
2019-06-07T10:43:16.105Z,32.14
2019-06-07T10:44:19.739Z,32.14
2019-06-07T10:45:23.983Z,32.03
2019-06-07T10:46:27.610Z,31.95
2019-06-07T10:47:31.869Z,32.08
2019-06-07T10:48:35.507Z,32.23
2019-06-07T10:49:39.753Z,32.35
2019-06-07T10:50:43.389Z,32.22
2019-06-07T10:51:47.554Z,31.70
2019-06-07T10:52:51.182Z,31.66
2019-06-07T10:53:55.419Z,31.79
2019-06-07T10:54:59.304Z,31.95
2019-06-07T10:56:04.880Z,32.17
2019-06-07T10:57:12.187Z,32.26
2019-06-07T10:58:14.478Z,32.29
2019-06-07T10:59:18.124Z,32.38
2019-06-07T11:00:24.374Z,32.32
2019-06-07T11:01:28.020Z,32.31
2019-06-07T11:02:32.153Z,32.14
2019-06-07T11:03:35.781Z,32.36
2019-06-07T11:04:39.950Z,32.41
2019-06-07T11:05:43.551Z,32.34
2019-06-07T11:06:47.792Z,32.17
2019-06-07T11:07:51.796Z,32.12
2019-06-07T11:08:55.894Z,32.04
2019-06-07T11:10:07.234Z,32.30
2019-06-07T11:11:06.023Z,32.50
2019-06-07T11:12:10.762Z,32.46
2019-06-07T11:13:15.141Z,32.50
2019-06-07T11:14:19.204Z,32.68
2019-06-07T11:15:23.759Z,32.85
2019-06-07T11:16:27.274Z,33.03
2019-06-07T11:17:31.922Z,33.15
2019-06-07T11:18:35.482Z,33.29
2019-06-07T11:19:39.704Z,33.43
2019-06-07T11:20:43.675Z,33.55
2019-06-07T11:21:47.850Z,33.66
2019-06-07T11:22:51.471Z,33.73
2019-06-07T11:23:55.705Z,33.94
2019-06-07T11:24:59.339Z,34.06
2019-06-07T11:26:03.611Z,34.18
2019-06-07T11:27:09.205Z,34.24
2019-06-07T11:28:14.687Z,34.24
2019-06-07T11:29:19.248Z,34.23
2019-06-07T11:30:23.683Z,34.14
2019-06-07T11:31:27.318Z,34.10
2019-06-07T11:32:31.750Z,34.10
2019-06-07T11:33:35.697Z,34.31
2019-06-07T11:34:39.780Z,34.52
2019-06-07T11:35:43.333Z,34.71
2019-06-07T11:36:50.953Z,34.86
2019-06-07T11:37:52.967Z,34.93
2019-06-07T11:38:57.637Z,34.89
2019-06-07T11:40:01.347Z,34.88
2019-06-07T11:41:05.579Z,35.06
2019-06-07T11:42:09.914Z,35.21
2019-06-07T11:43:14.952Z,35.26
2019-06-07T11:44:18.742Z,35.40
2019-06-07T11:45:23.103Z,35.49
2019-06-07T11:46:27.051Z,35.49
2019-06-07T11:47:31.889Z,35.51
2019-06-07T11:48:35.553Z,35.66
2019-06-07T11:49:39.877Z,35.77
2019-06-07T11:50:43.503Z,35.48
2019-06-07T11:51:50.858Z,35.32
2019-06-07T11:52:54.565Z,35.36
2019-06-07T11:53:58.744Z,35.66
2019-06-07T11:55:02.485Z,35.43
2019-06-07T11:56:10.318Z,35.56
2019-06-07T11:57:15.172Z,35.54
2019-06-07T11:58:21.695Z,35.54
2019-06-07T11:59:24.799Z,35.62
2019-06-07T12:00:28.945Z,35.58
2019-06-07T12:01:32.575Z,35.70
2019-06-07T12:02:36.805Z,35.72
2019-06-07T12:03:40.447Z,35.42
2019-06-07T12:04:44.693Z,35.49
2019-06-07T12:05:48.310Z,35.52
2019-06-07T12:06:52.540Z,35.65
2019-06-07T12:07:57.146Z,35.76
2019-06-07T12:09:01.578Z,35.83
2019-06-07T12:10:10.650Z,35.93
2019-06-07T12:11:16.532Z,36.03
2019-06-07T12:12:20.733Z,36.02
2019-06-07T12:13:26.921Z,36.04
2019-06-07T12:14:30.506Z,36.06
2019-06-07T12:15:34.719Z,36.12
2019-06-07T12:16:38.347Z,35.84
2019-06-07T12:17:42.523Z,35.80
2019-06-07T12:18:46.084Z,35.82
2019-06-07T12:19:50.313Z,35.72
2019-06-07T12:20:53.992Z,35.86
2019-06-07T12:21:58.073Z,35.81
2019-06-07T12:23:01.720Z,35.77
2019-06-07T12:24:06.170Z,35.86
2019-06-07T12:25:10.415Z,35.61
2019-06-07T12:26:14.973Z,35.69
2019-06-07T12:27:18.827Z,35.74
2019-06-07T12:28:25.678Z,35.75
2019-06-07T12:29:43.255Z,35.81
2019-06-07T12:30:47.456Z,35.90
2019-06-07T12:31:51.038Z,36.04
2019-06-07T12:32:55.304Z,36.16
2019-06-07T12:33:58.810Z,36.21
2019-06-07T12:35:03.030Z,36.30
2019-06-07T12:36:06.666Z,36.41
2019-06-07T12:37:11.732Z,36.48
2019-06-07T12:38:17.347Z,36.54
2019-06-07T12:39:22.242Z,36.56
2019-06-07T12:40:31.881Z,36.48
2019-06-07T12:41:31.976Z,36.44
2019-06-07T12:42:35.560Z,36.41
2019-06-07T12:43:39.649Z,36.41
2019-06-07T12:44:43.280Z,36.46
2019-06-07T12:45:47.494Z,36.52
2019-06-07T12:46:51.066Z,36.61
2019-06-07T12:47:55.308Z,36.61
2019-06-07T12:48:58.807Z,36.60
2019-06-07T12:50:03.303Z,36.57
2019-06-07T12:51:06.947Z,36.35
2019-06-07T12:52:13.938Z,36.24
2019-06-07T12:53:17.875Z,36.17
2019-06-07T12:54:23.872Z,36.06
2019-06-07T12:55:27.599Z,36.06
2019-06-07T12:56:31.692Z,36.11
2019-06-07T12:57:35.320Z,35.99
2019-06-07T12:58:39.716Z,35.91
2019-06-07T12:59:43.673Z,35.88
2019-06-07T13:00:47.878Z,35.76
2019-06-07T13:01:51.516Z,35.78
2019-06-07T13:02:55.777Z,35.89
2019-06-07T13:03:59.440Z,35.98
2019-06-07T13:05:04.902Z,35.91
2019-06-07T13:06:08.686Z,35.82
2019-06-07T13:07:13.156Z,35.76
2019-06-07T13:08:17.605Z,35.77
2019-06-07T13:09:22.295Z,35.81
2019-06-07T13:10:25.904Z,35.81
2019-06-07T13:11:31.703Z,35.95
2019-06-07T13:12:35.569Z,35.90
2019-06-07T13:13:39.909Z,35.87
2019-06-07T13:14:43.554Z,35.86
2019-06-07T13:15:47.745Z,35.87
2019-06-07T13:16:51.405Z,35.79
2019-06-07T13:17:55.686Z,35.56
2019-06-07T13:18:59.819Z,35.53
2019-06-07T13:20:04.564Z,35.43
2019-06-07T13:21:08.196Z,35.59
2019-06-07T13:22:12.674Z,35.75
2019-06-07T13:23:16.241Z,35.71
2019-06-07T13:24:20.954Z,35.67
2019-06-07T13:25:43.433Z,35.62
2019-06-07T13:26:32.168Z,35.47
2019-06-07T13:27:35.897Z,35.48
2019-06-07T13:28:40.095Z,35.40
2019-06-07T13:29:44.031Z,35.35
2019-06-07T13:30:48.322Z,35.19
2019-06-07T13:31:51.950Z,35.08
2019-06-07T13:32:56.166Z,34.92
2019-06-07T13:33:59.791Z,34.87
2019-06-07T13:35:05.204Z,34.90
2019-06-07T13:36:08.839Z,35.04
2019-06-07T13:37:12.982Z,35.24
2019-06-07T13:38:26.379Z,35.38
2019-06-07T13:39:30.594Z,35.18
2019-06-07T13:40:34.257Z,35.09
2019-06-07T13:41:43.069Z,35.24
2019-06-07T13:42:43.887Z,35.36
2019-06-07T13:43:51.308Z,35.42
2019-06-07T13:44:53.553Z,35.53
2019-06-07T13:45:57.813Z,35.53
2019-06-07T13:47:01.446Z,35.50
2019-06-07T13:48:05.684Z,35.51
2019-06-07T13:49:09.308Z,35.48
2019-06-07T13:50:14.119Z,35.36
2019-06-07T13:51:19.118Z,35.31
2019-06-07T13:52:23.602Z,35.33
2019-06-07T13:53:28.944Z,35.23
2019-06-07T13:54:33.649Z,35.19
2019-06-07T13:55:37.235Z,35.23
2019-06-07T13:57:00.746Z,35.22
2019-06-07T13:57:46.733Z,35.26
2019-06-07T13:58:50.886Z,35.25
2019-06-07T13:59:54.432Z,35.32
2019-06-07T14:00:58.759Z,35.25
2019-06-07T14:02:02.402Z,35.20
2019-06-07T14:03:06.612Z,35.27
2019-06-07T14:04:10.587Z,35.31